KF4YEP-7 Weather Reports


Display with metric or nautical units.
time (UTC)temp
F
wind
direction
speed
MPH
gust
MPH
rain 1hr
in
rain 24hr
in
rain mn
in
humidity
%
barometer
mb
20210919042017 74 0 0.0 0.0 0.00 0.00 0.02 100 1016.2
20210919041216 74 0 0.0 0.0 0.00 0.00 0.02 100 1016.2
20210919041017 74 0 0.0 0.0 0.00 0.00 0.02 100 1016.2
20210919034816 74 0 0.0 0.0 0.00 0.00 0.02 100 1016.2
20210919033617 74 0 0.0 0.0 0.00 0.00 0.02 100 1016.2
20210919033016 74 0 0.0 0.0 0.00 0.00 0.02 100 1016.2
20210919031016 74 0 0.0 0.0 0.00 0.00 0.02 100 1016.1
20210919030019 0 0 0.0 0.0 0.00 0.00 0.00 100
20210919024816 74 0 0.0 0.0 0.00 0.00 0.02 100 1016.2
20210919023616 75 0 0.0 0.0 0.00 0.00 0.02 100 1016.1
20210919014016 75 0 0.0 0.0 0.00 0.00 0.02 100 1016.2
20210919011017 75 0 0.0 0.0 0.00 0.00 0.02 100 1016.2
20210919010018 0 0 0.0 0.0 0.00 0.00 0.00 100
20210919002416 76 0 0.0 0.0 0.00 0.00 0.02 100 1015.9
20210919001217 76 0 0.0 0.0 0.00 0.00 0.02 100 1015.8
20210919000018 0 0 0.0 0.0 0.00 0.00 0.00 100
20210918235017 76 0 0.0 0.0 0.00 0.00 0.02 100 1015.8
20210918234816 76 0 0.0 0.0 0.00 0.00 0.02 100 1015.8
20210918234017 76 0 0.0 0.0 0.00 0.00 0.02 100 1015.8
20210918233616 76 0 0.0 0.0 0.00 0.00 0.02 100 1015.9
20210918231216 77 0 0.0 0.0 0.00 0.00 0.02 100 1015.7
20210918231016 77 0 0.0 0.0 0.00 0.00 0.02 100 1015.7
20210918230019 0 0 0.0 0.0 0.00 0.00 0.00 100
20210918225016 78 0 0.0 0.0 0.00 0.00 0.02 100 1015.7
20210918224817 78 0 0.0 0.0 0.00 0.00 0.02 99 1015.6
20210918224016 78 0 0.0 0.0 0.00 0.00 0.02 98 1015.6
20210918223617 79 0 0.0 0.0 0.00 0.00 0.02 97 1015.6
20210918223016 79 0 0.0 0.0 0.00 0.00 0.02 96 1015.5
20210918214017 81 0 0.0 0.0 0.00 0.00 0.02 93 1015.4
20210918213616 82 0 0.0 0.0 0.00 0.00 0.02 93 1015.4
20210918212016 82 0 0.0 0.0 0.00 0.00 0.02 92 1015.3
20210918211216 82 0 0.0 0.0 0.00 0.00 0.02 92 1015.2
20210918203017 81 0 0.0 0.0 0.00 0.00 0.02 95 1015.2
20210918202416 81 0 0.0 0.0 0.00 0.00 0.02 95 1015.2
20210918202017 81 0 0.0 0.0 0.00 0.00 0.02 94 1015.2
20210918201216 81 0 0.0 0.0 0.00 0.00 0.02 95 1015.2
20210918195016 82 0 0.0 0.0 0.00 0.00 0.02 94 1015.6
20210918194816 81 0 0.0 0.0 0.00 0.00 0.02 94 1015.6
20210918193016 82 0 0.0 0.0 0.00 0.00 0.02 93 1015.5
20210918192016 83 0 0.0 0.0 0.00 0.00 0.02 93 1015.5
20210918191016 84 0 0.0 0.0 0.00 0.00 0.02 95 1015.5
20210918190019 0 0 0.0 0.0 0.00 0.00 0.00 100
20210918185016 85 0 0.0 0.0 0.00 0.00 0.02 92 1015.9
20210918183016 86 0 0.0 0.0 0.00 0.00 0.02 93 1016.0
20210918181216 85 0 0.0 0.0 0.00 0.00 0.02 88 1016.2
20210918181016 85 0 0.0 0.0 0.00 0.00 0.02 86 1016.2
20210918180018 0 0 0.0 0.0 0.00 0.00 0.00 100
20210918175017 85 0 0.0 0.0 0.00 0.00 0.02 83 1016.6
20210918174816 86 0 0.0 0.0 0.00 0.00 0.02 82 1016.6
20210918173617 87 0 0.0 0.0 0.00 0.00 0.02 83 1016.7
20210918172416 85 0 0.0 0.0 0.00 0.00 0.02 86 1016.8
20210918170018 85 0 1.0 15.0 0.00 0.00 8.54 79 0.2
20210918164816 85 0 0.0 0.0 0.00 0.00 0.02 84 1017.4
20210918162416 85 0 0.0 0.0 0.00 0.00 0.02 86 1017.8
20210918162016 84 0 0.0 0.0 0.00 0.00 0.02 88 1017.8
20210918161017 84 0 0.0 0.0 0.00 0.00 0.02 90 1018.0
20210918154816 83 0 0.0 0.0 0.00 0.00 0.02 93 1018.2
20210918154016 83 0 0.0 0.0 0.00 0.00 0.02 95 1018.1
20210918153616 82 0 0.0 0.0 0.00 0.00 0.02 94 1018.2
20210918153016 82 0 0.0 0.0 0.00 0.00 0.02 97 1018.1
20210918152016 82 0 0.0 0.0 0.00 0.00 0.02 100 1018.1
20210918151216 81 0 0.0 0.0 0.00 0.00 0.02 100 1018.1
20210918144816 79 0 0.0 0.0 0.00 0.00 0.02 100 1018.2
20210918144016 79 0 0.0 0.0 0.00 0.00 0.02 100 1018.1
20210918143617 79 0 0.0 0.0 0.00 0.00 0.02 100 1018.0
20210918141216 77 0 0.0 0.0 0.00 0.00 0.02 100 1017.9
20210918135017 76 0 0.0 0.0 0.00 0.00 0.02 100 1017.9
20210918134016 76 0 0.0 0.0 0.00 0.00 0.02 100 1017.9
20210918133016 75 0 0.0 0.0 0.00 0.00 0.02 100 1018.0
20210918131017 75 0 0.0 0.0 0.00 0.00 0.02 100 1018.0
20210918130019 0 0 0.0 0.0 0.00 0.00 0.00 100
20210918124016 74 0 0.0 0.0 0.00 0.00 0.02 100 1017.7
20210918123016 74 0 0.0 0.0 0.00 0.00 0.02 100 1017.8
20210918122016 74 0 0.0 0.0 0.00 0.00 0.02 100 1017.9
20210918120018 0 0 0.0 0.0 0.00 0.00 0.00 100
20210918114816 73 0 0.0 0.0 0.00 0.00 0.02 100 1017.6
20210918111016 73 0 0.0 0.0 0.00 0.00 0.01 100 1017.5
20210918105016 73 0 0.0 0.0 0.00 0.00 0.01 100 1017.4
20210918104016 73 0 0.0 0.0 0.00 0.00 0.01 100 1017.4
20210918103017 73 0 0.0 0.0 0.00 0.00 0.01 100 1017.3
20210918101216 73 0 0.0 0.0 0.00 0.00 0.01 100 1017.2
20210918095017 73 0 0.0 0.0 0.00 0.00 0.01 100 1017.2
20210918094816 73 0 0.0 0.0 0.00 0.00 0.01 100 1017.2
20210918092416 73 0 0.0 0.0 0.00 0.00 0.01 100 1017.0
20210918084816 74 0 0.0 0.0 0.00 0.00 0.01 100 1016.8
20210918082021 74 0 0.0 0.0 0.00 0.00 0.01 100 1016.7
20210918081216 74 0 0.0 0.0 0.00 0.00 0.01 100 1016.7
20210918080019 0 0 0.0 0.0 0.00 0.00 0.00 100
20210918074017 74 0 0.0 0.0 0.00 0.00 0.01 100 1016.8
20210918073616 74 0 0.0 0.0 0.00 0.00 0.01 100 1016.8
20210918072017 74 0 0.0 0.0 0.00 0.00 0.01 100 1017.1
20210918070018 0 0 0.0 0.0 0.00 0.00 0.00 100
20210918064016 75 0 0.0 0.0 0.00 0.00 0.01 100 1017.3
20210918063016 75 0 0.0 0.0 0.00 0.00 0.01 100 1017.4
20210918061216 75 0 0.0 0.0 0.00 0.00 0.01 100 1017.5
20210918061016 75 0 0.0 0.0 0.00 0.00 0.01 100 1017.5
20210918054817 75 0 0.0 0.0 0.00 0.00 0.01 100 1017.5
20210918053616 75 0 0.0 0.0 0.00 0.00 0.01 100 1017.4
20210918051017 75 0 0.0 0.0 0.00 0.00 0.01 100 1017.5
20210918050019 0 0 0.0 0.0 0.00 0.00 0.00 100
20210918044816 75 0 0.0 0.0 0.00 0.00 0.01 100 1017.6
20210918044016 75 0 0.0 0.0 0.00 0.00 0.01 100 1017.7
20210918043616 75 0 0.0 0.0 0.00 0.00 0.01 100 1017.7